Country
Station

 

Weather  for  Ljubljana/Brnik  -  Slovenia    Slovenia

  
22 °C (72 °F)
    
 
 

Current METAR for Ljubljana/Brnik is :

LJLJ 021200Z 08007KT 050V110 9999 FEW050 SCT070 22/11 Q1013 NOSIG

 

This is a report for Ljubljana/Brnik - Slovenia.
 
The report was made 27 minutes ago, at 12:00 UTC .
The wind was blowing at a speed of 3.6 meters per second (8.1 miles per hour) from east (080°), varying between northeast (050°) and east/southeast (110°).
 
The temperature was 22 °C (72 °F), with a dew-point at 11 °C (52 °F).
The temperature felt like 25 °C (77 °F).
 
The atmospheric pressure was 1013 hPa (29.91 inHg).
The relative humidity was 49.7%.
 
There were a few clouds at a height of 1524 meters (5000 feet) and scattered clouds at a height of 2134 meters (7000 feet).
 
The overall visibility was greater than 10 kilometers (6.2 miles).
 

 
 
 
 

Country :   A   B   C   D   E   F   G   H   I   J   K   L   M   N   O   P   Q   R   S   T   U   V   W   Y   Z

 

Site Info  |  Disclaimer  |  Credits  |  Privacy
Contact us  |  Add to favorites
© 2013-2020 METARs - All rights reserved